Time,TemperatureF,DewpointF,PressureIn,WindDirection,WindDirectionDegrees,WindSpeedMPH,WindSpeedGustMPH,Humidity,HourlyPrecipIn,Conditions,Clouds,dailyrainin,SolarRadiationWatts/m^2,SoftwareType,DateUTC
2013-01-22 00:04:00,33.0,11.0,-100.00,NE,37,4.0,12.0,39,0.00,,,0.00,0.000000,,2013-01-22 05:04:00,
2013-01-22 00:33:00,33.0,11.0,-100.00,NNE,25,7.0,21.0,39,0.00,,,0.00,0.000000,,2013-01-22 05:33:00,
2013-01-22 00:43:00,33.0,11.0,-100.00,NNE,25,7.0,21.0,39,0.00,,,0.00,0.000000,,2013-01-22 05:43:00,
2013-01-22 00:53:00,33.0,11.0,-100.00,NNE,25,7.0,21.0,39,0.00,,,0.00,0.000000,,2013-01-22 05:53:00,
2013-01-22 01:02:00,33.0,11.0,-100.00,NNE,25,7.0,21.0,39,0.00,,,0.00,0.000000,,2013-01-22 06:02:00,
2013-01-22 01:33:00,30.0,11.0,-100.00,North,356,5.0,18.0,44,0.00,,,0.00,0.000000,,2013-01-22 06:33:00,
2013-01-22 01:43:00,30.0,11.0,-100.00,North,356,5.0,18.0,44,0.00,,,0.00,0.000000,,2013-01-22 06:43:00,
2013-01-22 01:53:00,30.0,11.0,-100.00,North,356,5.0,18.0,44,0.00,,,0.00,0.000000,,2013-01-22 06:53:00,
2013-01-22 02:02:00,30.0,11.0,-100.00,North,356,5.0,18.0,44,0.00,,,0.00,0.000000,,2013-01-22 07:02:00,
2013-01-22 02:33:00,29.0,10.0,-100.00,North,8,9.0,22.0,44,0.00,,,0.00,0.000000,,2013-01-22 07:33:00,
2013-01-22 02:43:00,29.0,10.0,-100.00,North,8,9.0,22.0,44,0.00,,,0.00,0.000000,,2013-01-22 07:43:00,
2013-01-22 02:53:00,29.0,10.0,-100.00,North,8,9.0,22.0,44,0.00,,,0.00,0.000000,,2013-01-22 07:53:00,
2013-01-22 03:02:00,29.0,10.0,-100.00,North,8,9.0,22.0,44,0.00,,,0.00,0.000000,,2013-01-22 08:02:00,
2013-01-22 03:33:00,28.0,9.0,-100.00,NNE,16,6.0,20.0,44,0.00,,,0.00,0.000000,,2013-01-22 08:33:00,
2013-01-22 03:43:00,28.0,9.0,-100.00,NNE,16,6.0,20.0,44,0.00,,,0.00,0.000000,,2013-01-22 08:43:00,
2013-01-22 03:53:00,28.0,9.0,-100.00,NNE,16,6.0,20.0,44,0.00,,,0.00,0.000000,,2013-01-22 08:53:00,
2013-01-22 04:02:00,28.0,9.0,-100.00,NNE,16,6.0,20.0,44,0.00,,,0.00,0.000000,,2013-01-22 09:02:00,
2013-01-22 04:33:00,27.0,7.0,-100.00,NNE,26,9.0,20.0,42,0.00,,,0.00,0.000000,,2013-01-22 09:33:00,
2013-01-22 04:43:00,27.0,7.0,-100.00,NNE,26,9.0,20.0,42,0.00,,,0.00,0.000000,,2013-01-22 09:43:00,
2013-01-22 04:53:00,27.0,7.0,-100.00,NNE,26,9.0,20.0,42,0.00,,,0.00,0.000000,,2013-01-22 09:53:00,
2013-01-22 05:03:00,27.0,7.0,-100.00,NNE,26,9.0,20.0,42,0.00,,,0.00,0.000000,,2013-01-22 10:03:00,
2013-01-22 05:33:00,26.0,6.0,-100.00,NNE,18,8.0,24.0,41,0.00,,,0.00,0.000000,,2013-01-22 10:33:00,
2013-01-22 05:43:00,26.0,6.0,-100.00,NNE,18,8.0,24.0,41,0.00,,,0.00,0.000000,,2013-01-22 10:43:00,
2013-01-22 05:53:00,26.0,6.0,-100.00,NNE,18,8.0,24.0,41,0.00,,,0.00,0.000000,,2013-01-22 10:53:00,
2013-01-22 06:02:00,26.0,6.0,-100.00,NNE,18,8.0,24.0,41,0.00,,,0.00,0.000000,,2013-01-22 11:02:00,
2013-01-22 06:33:00,25.0,5.0,-100.00,NNE,29,8.0,23.0,42,0.00,,,0.00,0.000000,,2013-01-22 11:33:00,
2013-01-22 06:43:00,25.0,5.0,-100.00,NNE,29,8.0,23.0,42,0.00,,,0.00,0.000000,,2013-01-22 11:43:00,
2013-01-22 06:54:00,25.0,5.0,-100.00,NNE,29,8.0,23.0,42,0.00,,,0.00,0.000000,,2013-01-22 11:54:00,
2013-01-22 07:04:00,25.0,5.0,-100.00,NNE,29,8.0,23.0,42,0.00,,,0.00,0.000000,,2013-01-22 12:04:00,
2013-01-22 07:33:00,24.0,5.0,-100.00,NNE,14,12.0,28.0,43,0.00,,,0.00,0.000000,,2013-01-22 12:33:00,
2013-01-22 07:43:00,24.0,5.0,-100.00,NNE,14,12.0,28.0,43,0.00,,,0.00,0.000000,,2013-01-22 12:43:00,
2013-01-22 07:53:00,24.0,5.0,-100.00,NNE,14,12.0,28.0,43,0.00,,,0.00,0.000000,,2013-01-22 12:53:00,
2013-01-22 08:04:00,24.0,5.0,-100.00,NNE,14,12.0,28.0,43,0.00,,,0.00,0.000000,,2013-01-22 13:04:00,
2013-01-22 08:34:00,24.0,3.0,-100.00,NNE,28,8.0,27.0,40,0.00,,,0.00,4.000000,,2013-01-22 13:34:00,
2013-01-22 08:43:00,24.0,3.0,-100.00,NNE,28,8.0,27.0,40,0.00,,,0.00,4.000000,,2013-01-22 13:43:00,
2013-01-22 08:54:00,24.0,3.0,-100.00,NNE,28,8.0,27.0,40,0.00,,,0.00,4.000000,,2013-01-22 13:54:00,
2013-01-22 09:03:00,24.0,3.0,-100.00,NNE,28,8.0,27.0,40,0.00,,,0.00,4.000000,,2013-01-22 14:03:00,
2013-01-22 09:34:00,25.0,1.0,-100.00,NNE,32,6.0,30.0,35,0.00,,,0.00,27.000000,,2013-01-22 14:34:00,
2013-01-22 09:44:00,25.0,1.0,-100.00,NNE,32,6.0,30.0,35,0.00,,,0.00,27.000000,,2013-01-22 14:44:00,
2013-01-22 09:54:00,25.0,1.0,-100.00,NNE,32,6.0,30.0,35,0.00,,,0.00,27.000000,,2013-01-22 14:54:00,
2013-01-22 10:04:00,25.0,1.0,-100.00,NNE,32,6.0,30.0,35,0.00,,,0.00,27.000000,,2013-01-22 15:04:00,
2013-01-22 10:34:00,28.0,3.0,-100.00,NNE,15,6.0,20.0,34,0.00,,,0.00,322.000000,,2013-01-22 15:34:00,
2013-01-22 10:44:00,28.0,3.0,-100.00,NNE,15,6.0,20.0,34,0.00,,,0.00,322.000000,,2013-01-22 15:44:00,
2013-01-22 10:54:00,28.0,3.0,-100.00,NNE,15,6.0,20.0,34,0.00,,,0.00,322.000000,,2013-01-22 15:54:00,
2013-01-22 11:04:00,28.0,3.0,-100.00,NNE,15,6.0,20.0,34,0.00,,,0.00,322.000000,,2013-01-22 16:04:00,
2013-01-22 11:33:00,30.0,3.0,-100.00,North,350,9.0,17.0,31,0.00,,,0.00,588.000000,,2013-01-22 16:33:00,
2013-01-22 11:43:00,30.0,3.0,-100.00,North,350,9.0,17.0,31,0.00,,,0.00,588.000000,,2013-01-22 16:43:00,
2013-01-22 11:54:00,30.0,3.0,-100.00,North,350,9.0,17.0,31,0.00,,,0.00,588.000000,,2013-01-22 16:54:00,
2013-01-22 12:04:00,30.0,3.0,-100.00,North,350,9.0,17.0,31,0.00,,,0.00,588.000000,,2013-01-22 17:04:00,
2013-01-22 12:35:00,32.0,3.0,-100.00,North,11,9.0,20.0,28,0.00,,,0.00,722.000000,,2013-01-22 17:35:00,
2013-01-22 12:44:00,32.0,3.0,-100.00,North,11,9.0,20.0,28,0.00,,,0.00,722.000000,,2013-01-22 17:44:00,
2013-01-22 12:54:00,32.0,3.0,-100.00,North,11,9.0,20.0,28,0.00,,,0.00,722.000000,,2013-01-22 17:54:00,
2013-01-22 13:04:00,32.0,3.0,-100.00,North,11,9.0,20.0,28,0.00,,,0.00,722.000000,,2013-01-22 18:04:00,
2013-01-22 13:34:00,35.0,3.0,-100.00,NE,35,7.0,19.0,25,0.00,,,0.00,784.000000,,2013-01-22 18:34:00,
2013-01-22 13:44:00,35.0,3.0,-100.00,NE,35,7.0,19.0,25,0.00,,,0.00,784.000000,,2013-01-22 18:44:00,
2013-01-22 13:54:00,35.0,3.0,-100.00,NE,35,7.0,19.0,25,0.00,,,0.00,784.000000,,2013-01-22 18:54:00,
2013-01-22 14:04:00,35.0,3.0,-100.00,NE,35,7.0,19.0,25,0.00,,,0.00,784.000000,,2013-01-22 19:04:00,
2013-01-22 14:34:00,37.0,4.0,-100.00,North,356,8.0,24.0,25,0.00,,,0.00,768.000000,,2013-01-22 19:34:00,
2013-01-22 14:44:00,37.0,4.0,-100.00,North,356,8.0,24.0,25,0.00,,,0.00,768.000000,,2013-01-22 19:44:00,
2013-01-22 14:54:00,37.0,4.0,-100.00,North,356,8.0,24.0,25,0.00,,,0.00,768.000000,,2013-01-22 19:54:00,
2013-01-22 15:03:00,37.0,4.0,-100.00,North,356,8.0,24.0,25,0.00,,,0.00,768.000000,,2013-01-22 20:03:00,
2013-01-22 15:34:00,39.0,5.0,-100.00,NNE,23,7.0,17.0,24,0.00,,,-99.99,679.000000,,2013-01-22 20:34:00,
2013-01-22 15:43:00,39.0,5.0,-100.00,NNE,23,7.0,17.0,24,0.00,,,-99.99,679.000000,,2013-01-22 20:43:00,
2013-01-22 15:54:00,39.0,5.0,-100.00,NNE,23,7.0,17.0,24,0.00,,,-99.99,679.000000,,2013-01-22 20:54:00,
2013-01-22 16:04:00,39.0,5.0,-100.00,NNE,23,7.0,17.0,24,0.00,,,-99.99,679.000000,,2013-01-22 21:04:00,
2013-01-22 16:34:00,38.0,5.0,-100.00,NNE,16,7.0,16.0,25,0.00,,,0.00,521.000000,,2013-01-22 21:34:00,
2013-01-22 16:43:00,38.0,5.0,-100.00,NNE,16,7.0,16.0,25,0.00,,,0.00,521.000000,,2013-01-22 21:43:00,
2013-01-22 16:53:00,38.0,5.0,-100.00,NNE,16,7.0,16.0,25,0.00,,,0.00,521.000000,,2013-01-22 21:53:00,
2013-01-22 17:03:00,38.0,5.0,-100.00,NNE,16,7.0,16.0,25,0.00,,,0.00,521.000000,,2013-01-22 22:03:00,
2013-01-22 17:33:00,37.0,6.0,-100.00,NNE,25,6.0,16.0,27,0.00,,,0.00,313.000000,,2013-01-22 22:33:00,
2013-01-22 17:43:00,37.0,6.0,-100.00,NNE,25,6.0,16.0,27,0.00,,,0.00,313.000000,,2013-01-22 22:43:00,
2013-01-22 17:53:00,37.0,6.0,-100.00,NNE,25,6.0,16.0,27,0.00,,,0.00,313.000000,,2013-01-22 22:53:00,
2013-01-22 18:03:00,37.0,6.0,-100.00,NNE,25,6.0,16.0,27,0.00,,,0.00,313.000000,,2013-01-22 23:03:00,
2013-01-22 18:34:00,33.0,6.0,-100.00,NNE,23,4.0,14.0,31,0.00,,,0.00,65.000000,,2013-01-22 23:34:00,
2013-01-22 18:43:00,33.0,6.0,-100.00,NNE,23,4.0,14.0,31,0.00,,,0.00,65.000000,,2013-01-22 23:43:00,
2013-01-22 18:53:00,33.0,6.0,-100.00,NNE,23,4.0,14.0,31,0.00,,,0.00,65.000000,,2013-01-22 23:53:00,
2013-01-22 19:03:00,33.0,6.0,-100.00,NNE,23,4.0,14.0,31,0.00,,,0.00,65.000000,,2013-01-23 00:03:00,
2013-01-22 19:33:00,31.0,5.0,-100.00,SW,227,3.0,11.0,32,0.00,,,0.00,0.000000,,2013-01-23 00:33:00,
2013-01-22 19:43:00,31.0,5.0,-100.00,SW,227,3.0,11.0,32,0.00,,,0.00,0.000000,,2013-01-23 00:43:00,
2013-01-22 19:53:00,31.0,5.0,-100.00,SW,227,3.0,11.0,32,0.00,,,0.00,0.000000,,2013-01-23 00:53:00,
2013-01-22 20:03:00,31.0,5.0,-100.00,SW,227,3.0,11.0,32,0.00,,,0.00,0.000000,,2013-01-23 01:03:00,
2013-01-22 20:33:00,30.0,4.0,-100.00,WNW,294,3.0,7.0,33,0.00,,,-99.99,0.000000,,2013-01-23 01:33:00,
2013-01-22 20:43:00,30.0,4.0,-100.00,WNW,294,3.0,7.0,33,0.00,,,-99.99,0.000000,,2013-01-23 01:43:00,
2013-01-22 20:53:00,30.0,4.0,-100.00,WNW,294,3.0,7.0,33,0.00,,,-99.99,0.000000,,2013-01-23 01:53:00,
2013-01-22 21:03:00,30.0,4.0,-100.00,WNW,294,3.0,7.0,33,0.00,,,-99.99,0.000000,,2013-01-23 02:03:00,
2013-01-22 21:33:00,30.0,6.0,-100.00,NNW,337,4.0,7.0,36,0.00,,,0.00,0.000000,,2013-01-23 02:33:00,
2013-01-22 21:43:00,30.0,6.0,-100.00,NNW,337,4.0,7.0,36,0.00,,,0.00,0.000000,,2013-01-23 02:43:00,
2013-01-22 21:53:00,30.0,6.0,-100.00,NNW,337,4.0,7.0,36,0.00,,,0.00,0.000000,,2013-01-23 02:53:00,
2013-01-22 22:03:00,30.0,6.0,-100.00,NNW,337,4.0,7.0,36,0.00,,,0.00,0.000000,,2013-01-23 03:03:00,
2013-01-22 22:33:00,29.0,3.0,-100.00,NNE,16,6.0,11.0,32,0.00,,,0.00,0.000000,,2013-01-23 03:33:00,
2013-01-22 22:43:00,29.0,3.0,-100.00,NNE,16,6.0,11.0,32,0.00,,,0.00,0.000000,,2013-01-23 03:43:00,
2013-01-22 22:53:00,29.0,3.0,-100.00,NNE,16,6.0,11.0,32,0.00,,,0.00,0.000000,,2013-01-23 03:53:00,
2013-01-22 23:03:00,29.0,3.0,-100.00,NNE,16,6.0,11.0,32,0.00,,,0.00,0.000000,,2013-01-23 04:03:00,
2013-01-22 23:33:00,29.0,2.0,-100.00,NNW,336,4.0,12.0,31,0.00,,,0.00,0.000000,,2013-01-23 04:33:00,
2013-01-22 23:43:00,29.0,2.0,-100.00,NNW,336,4.0,12.0,31,0.00,,,0.00,0.000000,,2013-01-23 04:43:00,
2013-01-22 23:53:00,29.0,2.0,-100.00,NNW,336,4.0,12.0,31,0.00,,,0.00,0.000000,,2013-01-23 04:53:00,